Llambi Campbell, Argentina
Current Conditions -  °F | °C
As of 7:00 AM on Friday 31 Oct 2014 (Local Time) from SAAR Reporting Station
Scattered Clouds Scattered Clouds  
Wind Chill: 21°   Ceiling: Unl
Heat Index: 21°   Visibility: 6mi
Dew Point: 17°   Wind: 5mph
Humidity: 78%   Direction: 70°ENE
Pressure: 29.8"   Gusts: NA
Location:  31.18°S, 60.75°W
Report Text: SAAR 311000Z 07004KT 9999 FEW025 SCT10021/17 Q1009
Loading
Personal Weather Stations






























Interactive Weather Map
Tropical Storm Tracking
New forecast layout! Learn more

10-Day Weather Forecast

Advertisements
Track Severe Weather on mobile